Terminal Aerodrome Forecast
Issued by NWS Pendleton, OR

Home | Current Version | Previous Version | Text Only | Print | Product List | Glossary On
Versions: 1 2 3 4 5 6 7 8 9 10 11 12 13 14 15 16
540
FTUS46 KPDT 271743 CCB
TAFPDT
TAF COR
KPDT 271743Z 2718/2818 28015KT P6SM VCSH SCT040 BKN060
     FM272100 27014G22KT P6SM VCSH SCT050 BKN120
     FM280300 24011KT P6SM SCT070
     FM280700 17006KT P6SM FEW060 SCT200
     FM281500 20006KT P6SM SCT070 BKN120=

USA.gov is the U.S. government's official web portal to all federal, state and local government web resources and services.